Time;durP1;ratioP1;P1;durP2;ratioP2;P2;SDS_P1;SDS_P2;PMS_P1;PMS_P2;Temp;Humidity;BMP_temperature;BMP_pressure;BME280_temperature;BME280_humidity;BME280_pressure;Samples;Min_cycle;Max_cycle;Signal;HPM_P1;HPM_P2
2022/07/03 00:01:52;;;;;;;0.47;0.40;;;;;;;23.70;100.00;95637.06;5135217;27;20476;-60
2022/07/03 00:04:21;;;;;;;0.50;0.40;;;;;;;23.90;100.00;95643.41;5135176;27;20946;-60
2022/07/03 00:06:53;;;;;;;1.57;1.13;;;;;;;23.64;100.00;95643.84;5135151;27;20823;-59
2022/07/03 00:09:22;;;;;;;2.77;0.70;;;;;;;23.60;100.00;95645.66;5135277;27;20512;-60
2022/07/03 00:11:50;;;;;;;0.90;0.60;;;;;;;23.42;100.00;95647.06;5135358;27;20418;-60
2022/07/03 00:14:19;;;;;;;0.40;0.30;;;;;;;23.54;100.00;95636.22;5134689;27;20506;-60
2022/07/03 00:16:48;;;;;;;0.50;0.40;;;;;;;23.65;100.00;95640.00;5135211;27;20643;-59
2022/07/03 00:19:16;;;;;;;0.50;0.40;;;;;;;23.65;100.00;95631.88;5135168;27;20817;-60
2022/07/03 00:21:50;;;;;;;0.60;0.40;;;;;;;23.55;100.00;95616.16;5135107;27;20506;-60
2022/07/03 00:24:25;;;;;;;0.63;0.40;;;;;;;23.64;100.00;95637.63;5134741;27;20776;-59
2022/07/03 00:26:55;;;;;;;2.50;0.40;;;;;;;23.58;100.00;95645.19;5135045;27;20430;-59
2022/07/03 00:29:27;;;;;;;0.73;0.73;;;;;;;22.83;100.00;95611.66;5134638;27;20494;-59
2022/07/03 00:31:56;;;;;;;0.70;0.70;;;;;;;23.14;100.00;95651.59;5134687;27;20523;-59
2022/07/03 00:34:26;;;;;;;0.77;0.77;;;;;;;22.51;100.00;95643.03;5134760;27;20501;-59
2022/07/03 00:36:58;;;;;;;1.03;0.77;;;;;;;22.40;100.00;95644.59;5134624;27;20448;-59
2022/07/03 00:39:27;;;;;;;0.80;0.80;;;;;;;22.35;100.00;95646.72;5134288;27;20502;-59
2022/07/03 00:42:01;;;;;;;0.77;0.73;;;;;;;22.50;100.00;95644.16;5134447;27;20866;-59
2022/07/03 00:44:30;;;;;;;0.90;0.90;;;;;;;22.52;100.00;95652.72;5134402;27;20464;-59
2022/07/03 00:46:59;;;;;;;0.50;0.30;;;;;;;22.50;100.00;95649.56;5133937;27;20841;-59
2022/07/03 00:49:30;;;;;;;1.50;0.97;;;;;;;22.95;100.00;95637.88;5134220;27;20502;-59
2022/07/03 00:52:04;;;;;;;1.37;0.87;;;;;;;23.34;100.00;95634.44;5134248;27;20431;-62
2022/07/03 00:54:36;;;;;;;0.60;0.60;;;;;;;23.13;100.00;95650.03;5134309;27;20449;-59
2022/07/03 00:57:06;;;;;;;0.63;0.60;;;;;;;22.45;100.00;95638.97;5133917;27;20545;-59
2022/07/03 00:59:34;;;;;;;0.77;0.77;;;;;;;22.53;100.00;95642.69;5134064;27;20977;-59
2022/07/03 01:02:05;;;;;;;0.70;0.70;;;;;;;22.35;100.00;95639.41;5134206;27;20563;-59
2022/07/03 01:04:46;;;;;;;0.83;0.83;;;;;;;22.10;100.00;95630.50;5134097;27;20423;-59
2022/07/03 01:07:32;;;;;;;0.60;0.43;;;;;;;22.12;100.00;95633.63;5133770;27;20418;-59
2022/07/03 01:10:10;;;;;;;0.60;0.60;;;;;;;22.24;100.00;95624.75;5133157;27;21086;-59
2022/07/03 01:12:55;;;;;;;0.80;0.70;;;;;;;22.24;100.00;95626.69;5133929;27;20514;-59
2022/07/03 01:15:37;;;;;;;0.50;0.40;;;;;;;22.20;100.00;95617.66;5133659;27;20995;-59
2022/07/03 01:18:24;;;;;;;0.77;0.77;;;;;;;22.23;100.00;95625.91;5134128;27;20423;-59
2022/07/03 01:21:00;;;;;;;2.20;1.00;;;;;;;22.39;100.00;95624.09;5133666;27;20440;-59
2022/07/03 01:23:41;;;;;;;0.70;0.70;;;;;;;22.56;100.00;95623.13;5134049;27;20450;-59
2022/07/03 01:26:13;;;;;;;0.40;0.30;;;;;;;22.79;100.00;95623.47;5134109;27;20410;-59
2022/07/03 01:28:45;;;;;;;0.40;0.30;;;;;;;22.93;100.00;95626.59;5133757;27;20498;-59
2022/07/03 01:31:19;;;;;;;0.70;0.70;;;;;;;22.88;100.00;95632.25;5133755;27;20427;-59
2022/07/03 01:33:51;;;;;;;0.50;0.40;;;;;;;23.10;100.00;95629.06;5133916;27;20525;-59
2022/07/03 01:36:22;;;;;;;0.50;0.40;;;;;;;23.09;100.00;95631.00;5133625;27;20521;-59
2022/07/03 01:38:51;;;;;;;3.50;0.47;;;;;;;23.13;100.00;95634.59;5133515;27;20509;-59
2022/07/03 01:41:25;;;;;;;0.40;0.30;;;;;;;23.06;100.00;95633.59;5133452;27;20502;-59
2022/07/03 01:43:57;;;;;;;0.40;0.20;;;;;;;23.40;100.00;95638.50;5133837;27;20438;-59
2022/07/03 01:46:29;;;;;;;0.40;0.30;;;;;;;23.49;100.00;95641.06;5132896;27;20470;-59
2022/07/03 01:48:59;;;;;;;0.50;0.30;;;;;;;23.63;100.00;95642.25;5133274;27;20525;-59
2022/07/03 01:51:29;;;;;;;0.40;0.20;;;;;;;23.71;100.00;95635.91;5133502;27;20801;-59
2022/07/03 01:54:00;;;;;;;0.40;0.40;;;;;;;23.63;100.00;95620.59;5133596;27;20505;-59
2022/07/03 01:56:34;;;;;;;0.47;0.30;;;;;;;23.28;100.00;95646.59;5133670;27;21080;-59
2022/07/03 01:59:03;;;;;;;0.40;0.30;;;;;;;23.40;100.00;95649.34;5133152;27;20470;-59
2022/07/03 02:01:38;;;;;;;0.50;0.40;;;;;;;23.03;100.00;95645.88;5133106;27;20887;-59
2022/07/03 02:04:21;;;;;;;0.60;0.60;;;;;;;22.58;100.00;95650.59;5133069;27;20426;-59
2022/07/03 02:06:58;;;;;;;1.03;0.93;;;;;;;22.72;100.00;95651.84;5133339;27;20501;-59
2022/07/03 02:09:36;;;;;;;0.53;0.50;;;;;;;22.84;100.00;95648.38;5132915;27;20907;-60
2022/07/03 02:12:12;;;;;;;0.60;0.40;;;;;;;22.65;100.00;95645.44;5132982;27;20560;-59
2022/07/03 02:14:46;;;;;;;0.80;0.67;;;;;;;23.06;100.00;95655.22;5132658;27;20556;-59
2022/07/03 02:17:18;;;;;;;10.47;0.57;;;;;;;23.29;100.00;95653.59;5133287;27;20472;-59
2022/07/03 02:19:53;;;;;;;0.40;0.30;;;;;;;23.45;100.00;95657.22;5132438;27;20925;-59
2022/07/03 02:22:28;;;;;;;0.50;0.30;;;;;;;23.51;100.00;95657.75;5131856;27;20437;-59
2022/07/03 02:25:03;;;;;;;0.40;0.20;;;;;;;23.54;100.00;95655.16;5132760;27;20426;-59
2022/07/03 02:27:45;;;;;;;0.50;0.40;;;;;;;23.03;100.00;95653.19;5132819;27;20422;-59
2022/07/03 02:30:14;;;;;;;0.50;0.40;;;;;;;23.09;100.00;95655.34;5132670;27;20889;-59
2022/07/03 02:32:46;;;;;;;4.20;0.40;;;;;;;23.17;100.00;95648.22;5132710;27;20510;-59
2022/07/03 02:35:19;;;;;;;0.50;0.40;;;;;;;22.59;100.00;95547.56;5132080;27;20947;-59
2022/07/03 02:37:54;;;;;;;0.50;0.30;;;;;;;23.39;100.00;95669.41;5132262;27;20459;-59
2022/07/03 02:40:28;;;;;;;0.40;0.30;;;;;;;23.47;100.00;95664.97;5132809;27;20429;-59
2022/07/03 02:43:10;;;;;;;0.60;0.53;;;;;;;22.82;100.00;95564.13;5132994;28;20786;-59
2022/07/03 02:45:51;;;;;;;0.40;0.20;;;;;;;23.14;100.00;95598.31;5115046;28;20462;-59
2022/07/03 02:48:30;;;;;;;0.40;0.30;;;;;;;23.48;100.00;95653.03;5132505;28;20461;-59
2022/07/03 02:51:05;;;;;;;1.27;0.50;;;;;;;23.39;100.00;95672.09;5132453;28;20506;-59
2022/07/03 02:53:44;;;;;;;0.40;0.20;;;;;;;23.38;100.00;95672.44;5132823;28;20445;-58
2022/07/03 02:56:16;;;;;;;0.40;0.30;;;;;;;22.95;100.00;95629.75;5132895;28;20419;-59
2022/07/03 02:59:01;;;;;;;0.77;0.40;;;;;;;23.12;100.00;95621.41;5131930;28;20628;-58
2022/07/03 03:01:35;;;;;;;0.50;0.40;;;;;;;23.26;100.00;95675.91;5131949;28;20935;-59
2022/07/03 03:04:10;;;;;;;0.50;0.50;;;;;;;23.07;100.00;95670.31;5132834;28;20458;-58
2022/07/03 03:06:43;;;;;;;0.70;0.50;;;;;;;22.98;100.00;95685.84;5132296;28;20430;-58
2022/07/03 03:09:18;;;;;;;0.73;0.67;;;;;;;22.94;100.00;95679.56;5132571;28;20462;-58
2022/07/03 03:11:48;;;;;;;4.03;0.40;;;;;;;22.86;100.00;95689.38;5132156;28;20462;-58
2022/07/03 03:14:21;;;;;;;0.50;0.40;;;;;;;22.99;100.00;95682.84;5131900;28;20515;-58
2022/07/03 03:16:53;;;;;;;1.00;0.77;;;;;;;22.96;100.00;95674.59;5132091;28;20461;-58
2022/07/03 03:19:23;;;;;;;0.40;0.30;;;;;;;23.01;100.00;95683.28;5132005;28;20517;-58
2022/07/03 03:22:00;;;;;;;5.60;0.40;;;;;;;22.52;100.00;95616.78;5132122;28;20930;-58
2022/07/03 03:24:29;;;;;;;2.47;0.30;;;;;;;22.79;100.00;95688.34;5132260;28;20442;-58
2022/07/03 03:27:00;;;;;;;2.40;0.83;;;;;;;22.57;100.00;95693.00;5132301;28;20822;-58
2022/07/03 03:29:30;;;;;;;0.40;0.33;;;;;;;22.72;100.00;95688.88;5131826;28;20454;-58
2022/07/03 03:31:59;;;;;;;1.33;0.37;;;;;;;22.81;100.00;95680.69;5133311;27;20479;-58
2022/07/03 03:34:33;;;;;;;0.40;0.30;;;;;;;22.88;100.00;95692.50;5135825;27;20410;-58
2022/07/03 03:37:01;;;;;;;0.50;0.47;;;;;;;22.94;100.00;95679.56;5135963;27;20479;-58
2022/07/03 03:39:30;;;;;;;0.47;0.33;;;;;;;22.81;100.00;95692.28;5135838;27;20461;-58
2022/07/03 03:42:01;;;;;;;0.50;0.30;;;;;;;22.87;100.00;95700.97;5135721;27;20473;-58
2022/07/03 03:44:33;;;;;;;0.40;0.30;;;;;;;22.84;100.00;95690.81;5136031;27;20911;-58
2022/07/03 03:47:02;;;;;;;0.50;0.30;;;;;;;23.00;100.00;95694.41;5135927;27;20558;-53
2022/07/03 03:49:30;;;;;;;0.50;0.40;;;;;;;23.00;100.00;95700.59;5135252;27;20887;-54
2022/07/03 03:51:59;;;;;;;0.70;0.43;;;;;;;23.12;100.00;95706.00;5135750;27;20470;-53
2022/07/03 03:54:27;;;;;;;0.57;0.33;;;;;;;23.03;100.00;95705.34;5135617;27;20513;-53
2022/07/03 03:56:56;;;;;;;0.47;0.30;;;;;;;23.08;100.00;95709.72;5135244;27;20875;-53
2022/07/03 03:59:24;;;;;;;0.47;0.30;;;;;;;23.16;100.00;95712.34;5135365;27;20431;-54
2022/07/03 04:01:54;;;;;;;0.40;0.30;;;;;;;23.01;100.00;95712.22;5135601;27;20422;-55
2022/07/03 04:04:22;;;;;;;0.50;0.30;;;;;;;23.22;100.00;95704.78;5135701;27;20852;-54
2022/07/03 04:06:51;;;;;;;1.00;0.70;;;;;;;23.32;100.00;95702.41;5135242;27;20502;-54
2022/07/03 04:09:19;;;;;;;0.50;0.30;;;;;;;23.38;100.00;95710.31;5134984;27;20517;-54
2022/07/03 04:11:48;;;;;;;0.50;0.40;;;;;;;23.44;100.00;95704.31;5135009;27;20470;-54
2022/07/03 04:14:16;;;;;;;0.50;0.40;;;;;;;23.45;100.00;95700.50;5135016;27;20498;-54
2022/07/03 04:16:44;;;;;;;0.80;0.80;;;;;;;23.49;100.00;95706.00;5135253;27;20505;-54
2022/07/03 04:19:14;;;;;;;0.40;0.30;;;;;;;23.54;100.00;95709.25;5134913;27;20427;-54
2022/07/03 04:21:43;;;;;;;0.80;0.37;;;;;;;23.62;100.00;95702.94;5134893;27;20461;-54
2022/07/03 04:24:11;;;;;;;0.60;0.40;;;;;;;23.65;100.00;95704.97;5134855;27;20474;-54
2022/07/03 04:26:39;;;;;;;0.50;0.47;;;;;;;23.75;100.00;95698.28;5134964;27;20426;-54
2022/07/03 04:29:08;;;;;;;0.60;0.33;;;;;;;23.80;100.00;95706.16;5134774;27;20525;-54
2022/07/03 04:31:36;;;;;;;0.40;0.30;;;;;;;23.78;100.00;95700.31;5134544;27;20915;-54
2022/07/03 04:34:05;;;;;;;1.20;0.33;;;;;;;23.42;100.00;95655.19;5134767;27;20505;-53
2022/07/03 04:36:35;;;;;;;0.40;0.40;;;;;;;23.72;100.00;95702.47;5134877;27;20506;-53
2022/07/03 04:39:03;;;;;;;0.40;0.30;;;;;;;23.66;100.00;95703.03;5135089;27;20465;-53
2022/07/03 04:41:31;;;;;;;0.40;0.30;;;;;;;23.59;100.00;95709.03;5134347;27;20535;-52
2022/07/03 04:44:00;;;;;;;0.60;0.60;;;;;;;23.51;100.00;95707.22;5133729;27;20522;-53
2022/07/03 04:46:28;;;;;;;0.70;0.60;;;;;;;23.61;100.00;95714.88;5134098;27;20517;-52
2022/07/03 04:48:57;;;;;;;0.93;0.93;;;;;;;23.89;100.00;95714.91;5134530;27;20433;-52
2022/07/03 04:51:25;;;;;;;0.43;0.27;;;;;;;23.91;100.00;95710.72;5134420;27;20505;-52
2022/07/03 04:53:55;;;;;;;1.73;0.30;;;;;;;23.96;100.00;95707.78;5134954;27;20430;-53
2022/07/03 04:56:23;;;;;;;0.80;0.40;;;;;;;24.07;100.00;95699.94;5134351;27;20517;-52
2022/07/03 04:58:52;;;;;;;0.40;0.30;;;;;;;24.26;100.00;95702.03;5134657;27;20474;-52
2022/07/03 05:01:20;;;;;;;0.70;0.70;;;;;;;23.65;100.00;95656.25;5134388;27;20450;-52
2022/07/03 05:03:49;;;;;;;0.60;0.50;;;;;;;24.19;100.00;95699.13;5133508;27;20475;-52
2022/07/03 05:06:17;;;;;;;1.03;1.03;;;;;;;24.14;100.00;95699.38;5134259;27;20840;-52
2022/07/03 05:08:48;;;;;;;4.40;0.40;;;;;;;24.47;100.00;95697.16;5134180;27;20851;-51
2022/07/03 05:11:18;;;;;;;0.90;0.90;;;;;;;24.08;100.00;95695.34;5134042;27;20553;-51
2022/07/03 05:13:46;;;;;;;2.73;1.80;;;;;;;23.94;100.00;95701.91;5134102;27;20502;-51
2022/07/03 05:16:14;;;;;;;0.93;0.93;;;;;;;23.63;100.00;95698.31;5134006;27;20860;-51
2022/07/03 05:18:43;;;;;;;0.60;0.60;;;;;;;24.09;100.00;95696.91;5134326;27;20461;-52
2022/07/03 05:21:11;;;;;;;1.70;0.40;;;;;;;24.13;100.00;95630.91;5133693;27;20457;-52
2022/07/03 05:23:40;;;;;;;1.33;0.90;;;;;;;24.06;100.00;95692.19;5133967;27;20455;-52
2022/07/03 05:26:08;;;;;;;2.20;1.53;;;;;;;23.94;100.00;95691.09;5133474;27;20502;-51
2022/07/03 05:28:38;;;;;;;3.13;0.90;;;;;;;24.17;100.00;95690.56;5133525;27;20470;-52
2022/07/03 05:31:07;;;;;;;0.80;0.80;;;;;;;23.96;100.00;95702.34;5133971;27;20513;-52
2022/07/03 05:33:35;;;;;;;4.60;0.90;;;;;;;23.94;100.00;95707.34;5133958;27;20522;-52
2022/07/03 05:36:04;;;;;;;1.13;0.80;;;;;;;23.96;100.00;95691.53;5134008;27;20433;-51
2022/07/03 05:41:18;;;;;;;0.50;0.50;;;;;;;24.71;100.00;95699.72;5133874;27;20450;-52
2022/07/03 05:43:48;;;;;;;1.33;0.60;;;;;;;25.21;100.00;95697.09;5133537;27;20469;-52
2022/07/03 05:46:17;;;;;;;0.60;0.57;;;;;;;25.35;100.00;95701.28;5133756;27;20481;-52
2022/07/03 05:48:45;;;;;;;0.73;0.50;;;;;;;25.45;100.00;95693.38;5133739;27;20422;-53
2022/07/03 05:51:14;;;;;;;0.50;0.50;;;;;;;25.47;100.00;95709.34;5133549;27;20554;-52
2022/07/03 05:53:42;;;;;;;1.00;0.77;;;;;;;25.80;100.00;95685.22;5133472;27;20510;-52
2022/07/03 05:56:10;;;;;;;1.17;0.30;;;;;;;25.72;100.00;95680.78;5133194;27;20910;-52
2022/07/03 05:58:41;;;;;;;0.50;0.40;;;;;;;26.43;100.00;95689.19;5133324;27;20509;-53
2022/07/03 06:01:11;;;;;;;0.67;0.40;;;;;;;26.71;100.00;95693.56;5133440;27;20491;-53
2022/07/03 06:03:39;;;;;;;0.60;0.30;;;;;;;26.92;96.65;95683.84;5133481;27;20459;-52
2022/07/03 06:06:08;;;;;;;0.40;0.30;;;;;;;27.16;98.10;95688.09;5133451;27;20423;-52
2022/07/03 06:08:37;;;;;;;4.20;2.70;;;;;;;27.17;98.19;95675.28;5132958;27;20434;-52
2022/07/03 06:11:05;;;;;;;0.70;0.67;;;;;;;27.07;97.07;95676.69;5133285;27;20434;-52
2022/07/03 06:13:34;;;;;;;0.40;0.40;;;;;;;26.95;97.83;95671.44;5133001;27;20470;-52
2022/07/03 06:16:02;;;;;;;0.80;0.67;;;;;;;26.71;100.00;95682.69;5133229;27;20469;-53
2022/07/03 06:18:32;;;;;;;0.60;0.40;;;;;;;27.10;99.93;95674.03;5132923;27;20924;-53
2022/07/03 06:21:01;;;;;;;0.80;0.80;;;;;;;27.35;100.00;95674.38;5132351;27;20513;-53
2022/07/03 06:23:29;;;;;;;0.73;0.60;;;;;;;27.78;99.08;95664.09;5132871;27;20517;-53
2022/07/03 06:26:14;;;;;;;0.60;0.60;;;;;;;27.45;96.88;95657.44;5132881;27;20524;-53
2022/07/03 06:28:43;;;;;;;1.13;0.57;;;;;;;27.93;97.17;95665.84;5132908;27;20454;-50
2022/07/03 06:31:12;;;;;;;0.70;0.70;;;;;;;28.03;93.21;95668.69;5132971;27;20489;-51
2022/07/03 06:33:41;;;;;;;0.43;0.43;;;;;;;28.09;79.70;95677.34;5131643;27;20435;-51
2022/07/03 06:36:10;;;;;;;0.60;0.60;;;;;;;28.03;86.17;95665.22;5133165;27;20442;-56
2022/07/03 06:38:38;;;;;;;0.60;0.50;;;;;;;28.24;82.38;95622.59;5132444;27;20525;-56
2022/07/03 06:41:07;;;;;;;0.63;0.63;;;;;;;29.17;83.69;95659.66;5132369;27;20466;-55
2022/07/03 06:43:35;;;;;;;0.60;0.47;;;;;;;29.57;84.82;95659.53;5129818;28;20423;-56
2022/07/03 06:46:04;;;;;;;1.17;0.40;;;;;;;29.42;81.27;95660.63;5128958;28;20607;-56
2022/07/03 06:48:32;;;;;;;0.80;0.80;;;;;;;29.42;77.60;95660.63;5128820;28;20901;-56
2022/07/03 06:51:02;;;;;;;1.20;0.57;;;;;;;29.81;83.85;95650.69;5128922;28;20454;-56
2022/07/03 06:53:31;;;;;;;4.30;0.43;;;;;;;29.75;79.22;95654.16;5128994;28;20462;-55
2022/07/03 06:55:59;;;;;;;0.90;0.80;;;;;;;29.32;76.71;95647.69;5130155;28;20470;-56
2022/07/03 06:58:28;;;;;;;0.60;0.40;;;;;;;29.60;80.13;95641.59;5130784;28;20426;-56
2022/07/03 07:00:56;;;;;;;0.63;0.57;;;;;;;29.89;56.71;95644.09;5131982;28;20860;-56
2022/07/03 07:03:25;;;;;;;0.63;0.63;;;;;;;30.30;57.60;95646.56;5132235;28;20422;-56
2022/07/03 07:05:53;;;;;;;0.93;0.93;;;;;;;30.44;67.43;95641.13;5132296;27;20437;-57
2022/07/03 07:08:23;;;;;;;0.57;0.50;;;;;;;30.39;68.29;95638.78;5135979;27;20422;-57
2022/07/03 07:10:51;;;;;;;0.70;0.50;;;;;;;30.75;68.97;95640.41;5136433;27;20444;-57
2022/07/03 07:13:20;;;;;;;1.60;1.50;;;;;;;31.16;63.31;95633.38;5136081;27;20474;-59
2022/07/03 07:15:48;;;;;;;0.43;0.40;;;;;;;31.55;56.73;95629.81;5136731;27;20513;-59
2022/07/03 07:18:16;;;;;;;0.40;0.30;;;;;;;31.64;59.88;95624.66;5136230;27;20911;-59
2022/07/03 07:20:45;;;;;;;0.50;0.50;;;;;;;31.49;43.81;95620.41;5136637;27;20415;-60
2022/07/03 07:23:13;;;;;;;0.40;0.40;;;;;;;31.71;39.52;95622.69;5136748;27;20505;-60
2022/07/03 07:25:43;;;;;;;0.40;0.30;;;;;;;31.98;38.32;95617.47;5136203;27;20415;-61
2022/07/03 07:28:12;;;;;;;0.50;0.30;;;;;;;31.95;44.69;95607.31;5136197;27;20416;-60
2022/07/03 07:30:40;;;;;;;0.60;0.40;;;;;;;32.00;43.35;95615.16;5136275;27;20507;-60
2022/07/03 07:33:09;;;;;;;0.40;0.30;;;;;;;32.35;41.41;95608.66;5136142;27;20467;-60
2022/07/03 07:35:38;;;;;;;0.40;0.30;;;;;;;32.18;35.66;95609.56;5136032;27;20983;-60
2022/07/03 07:38:06;;;;;;;1.07;0.50;;;;;;;32.28;38.70;95609.50;5136033;27;20458;-60
2022/07/03 07:40:36;;;;;;;0.40;0.40;;;;;;;32.29;40.50;95599.28;5135962;27;20505;-60
2022/07/03 07:43:07;;;;;;;0.63;0.63;;;;;;;32.35;40.91;95598.47;5136110;27;20424;-60
2022/07/03 07:45:35;;;;;;;0.40;0.40;;;;;;;32.62;43.08;95593.22;5136315;27;20512;-60
2022/07/03 07:48:04;;;;;;;0.50;0.50;;;;;;;32.75;42.08;95594.28;5135862;27;20855;-59
2022/07/03 07:50:33;;;;;;;0.50;0.40;;;;;;;33.02;41.70;95591.69;5135605;27;20498;-58
2022/07/03 07:53:02;;;;;;;0.50;0.33;;;;;;;32.59;36.68;95594.81;5135316;27;20555;-58
2022/07/03 07:55:31;;;;;;;0.40;0.33;;;;;;;32.74;36.57;95595.47;5135802;27;20430;-58
2022/07/03 07:58:02;;;;;;;0.40;0.30;;;;;;;32.37;35.76;95551.44;5135891;27;20420;-58
2022/07/03 08:00:32;;;;;;;2.57;0.43;;;;;;;32.84;36.41;95594.59;5135366;27;20435;-58
2022/07/03 08:05:47;;;;;;;0.90;0.50;;;;;;;33.01;34.21;95499.50;5135617;27;20435;-59
2022/07/03 08:08:18;;;;;;;4.40;0.70;;;;;;;33.78;33.76;95570.09;5135233;27;20429;-58
2022/07/03 08:10:48;;;;;;;3.33;0.40;;;;;;;33.81;34.49;95582.22;5135486;27;20438;-58
2022/07/03 08:13:18;;;;;;;0.50;0.40;;;;;;;33.13;32.08;95592.41;5135014;27;20464;-58
2022/07/03 08:15:48;;;;;;;0.73;0.50;;;;;;;33.57;31.08;95589.59;5135132;27;20419;-58
2022/07/03 08:18:20;;;;;;;0.40;0.33;;;;;;;33.58;35.52;95538.91;5134032;27;20418;-62
2022/07/03 08:20:48;;;;;;;0.40;0.33;;;;;;;33.97;33.34;95581.63;5135142;27;20478;-58
2022/07/03 08:23:17;;;;;;;0.60;0.60;;;;;;;33.96;33.05;95582.81;5135348;27;20444;-58
2022/07/03 08:25:46;;;;;;;0.37;0.30;;;;;;;34.15;35.98;95582.19;5135140;27;20939;-58
2022/07/03 08:28:18;;;;;;;0.40;0.30;;;;;;;34.85;30.11;95580.34;5135277;27;20492;-57
2022/07/03 08:30:48;;;;;;;0.30;0.30;;;;;;;34.65;34.86;95579.50;5134851;27;20438;-57
2022/07/03 08:33:17;;;;;;;0.40;0.33;;;;;;;34.56;35.92;95579.25;5135029;27;20248;-57
2022/07/03 08:35:45;;;;;;;0.60;0.60;;;;;;;34.75;35.45;95576.56;5134725;27;20216;-57
2022/07/03 08:38:13;;;;;;;1.07;0.53;;;;;;;34.87;36.64;95570.47;5134774;27;20705;-56
2022/07/03 08:40:44;;;;;;;0.50;0.40;;;;;;;34.73;33.63;95581.72;5134607;27;20424;-57
2022/07/03 08:43:12;;;;;;;0.33;0.30;;;;;;;35.14;34.07;95570.44;5134633;27;20570;-57
2022/07/03 08:45:42;;;;;;;0.40;0.40;;;;;;;35.27;31.34;95570.59;5134486;27;20180;-57
2022/07/03 08:48:13;;;;;;;1.03;0.93;;;;;;;34.65;31.23;95572.03;5134378;27;20241;-57
2022/07/03 08:50:46;;;;;;;0.67;0.60;;;;;;;34.45;32.15;95573.88;5134790;27;20681;-57
2022/07/03 08:53:14;;;;;;;0.50;0.40;;;;;;;34.75;31.51;95571.06;5135065;27;20244;-57
2022/07/03 08:55:43;;;;;;;0.60;0.60;;;;;;;34.24;32.35;95565.94;5134428;27;20650;-57
2022/07/03 08:58:14;;;;;;;0.47;0.43;;;;;;;34.47;32.42;95561.25;5134306;27;20698;-57
2022/07/03 09:00:43;;;;;;;0.47;0.47;;;;;;;35.31;32.47;95554.75;5134747;27;20216;-57
2022/07/03 09:03:14;;;;;;;0.60;0.60;;;;;;;34.69;30.54;95563.69;5134367;27;20215;-57
2022/07/03 09:05:43;;;;;;;0.50;0.50;;;;;;;34.52;31.01;95549.00;5134580;27;20187;-57
2022/07/03 09:08:12;;;;;;;0.30;0.30;;;;;;;35.29;31.06;95546.13;5134339;27;20215;-57
2022/07/03 09:10:40;;;;;;;0.67;0.60;;;;;;;34.53;30.37;95556.06;5134090;27;20268;-57
2022/07/03 09:13:09;;;;;;;0.70;0.30;;;;;;;34.85;32.38;95564.59;5133715;27;20927;-57
2022/07/03 09:15:37;;;;;;;0.40;0.40;;;;;;;35.78;30.51;95545.13;5133994;27;20306;-57
2022/07/03 09:18:07;;;;;;;0.70;0.40;;;;;;;35.74;29.35;95538.94;5133546;27;20669;-58
2022/07/03 09:20:39;;;;;;;0.40;0.40;;;;;;;35.14;29.02;95544.84;5133590;27;20263;-58
2022/07/03 09:23:13;;;;;;;0.40;0.40;;;;;;;35.00;29.64;95538.34;5133738;27;20625;-57
2022/07/03 09:25:55;;;;;;;0.60;0.60;;;;;;;35.53;28.22;95525.56;5133430;27;20273;-57
2022/07/03 09:28:26;;;;;;;0.60;0.60;;;;;;;36.22;28.21;95530.78;5133692;27;20680;-57
2022/07/03 09:30:59;;;;;;;0.50;0.40;;;;;;;35.98;28.83;95529.31;5132958;27;20237;-57
2022/07/03 09:33:28;;;;;;;0.50;0.50;;;;;;;35.50;30.44;95531.91;5133642;27;20244;-57
2022/07/03 09:35:58;;;;;;;0.50;0.50;;;;;;;36.07;31.14;95520.50;5133673;27;20276;-57
2022/07/03 09:38:26;;;;;;;0.63;0.63;;;;;;;36.57;31.06;95517.34;5133503;27;20220;-57
2022/07/03 09:40:57;;;;;;;0.40;0.40;;;;;;;35.72;28.81;95524.78;5133375;27;20230;-57
2022/07/03 09:43:31;;;;;;;0.50;0.43;;;;;;;36.00;30.11;95524.19;5133556;27;20241;-57
2022/07/03 09:46:02;;;;;;;1.47;0.80;;;;;;;36.66;28.94;95514.78;5133281;27;20235;-57
2022/07/03 09:48:33;;;;;;;0.63;0.40;;;;;;;36.33;27.77;95452.47;5133532;27;20184;-57
2022/07/03 09:51:13;;;;;;;0.50;0.40;;;;;;;36.38;28.58;95507.16;5133229;27;20185;-57
2022/07/03 09:53:50;;;;;;;0.50;0.50;;;;;;;36.70;27.66;95515.44;5133000;27;20277;-57
2022/07/03 09:56:26;;;;;;;0.75;0.50;;;;;;;36.80;26.64;95509.66;5133329;27;20275;-57
2022/07/03 09:59:08;;;;;;;0.68;0.30;;;;;;;36.13;27.45;95500.22;5133294;27;20558;-57
2022/07/03 10:01:38;;;;;;;0.50;0.50;;;;;;;36.62;27.39;95503.81;5132835;27;20619;-57
2022/07/03 10:04:18;;;;;;;1.02;0.73;;;;;;;35.63;27.13;95508.03;5132950;27;20194;-57
2022/07/03 10:06:49;;;;;;;0.95;0.80;;;;;;;36.04;28.06;95507.56;5132561;27;20744;-57
2022/07/03 10:09:20;;;;;;;0.43;0.43;;;;;;;36.72;27.51;95494.47;5133000;27;20224;-57
2022/07/03 10:11:49;;;;;;;0.60;0.60;;;;;;;37.11;27.17;95496.25;5133108;27;20207;-57
2022/07/03 10:14:18;;;;;;;0.80;0.80;;;;;;;36.41;28.26;95451.84;5131677;27;20239;-57
2022/07/03 10:16:47;;;;;;;1.25;0.60;;;;;;;36.43;27.03;95490.06;5132586;27;20200;-57
2022/07/03 10:19:20;;;;;;;0.43;0.40;;;;;;;36.69;28.11;95480.75;5132814;27;20271;-57
2022/07/03 10:21:54;;;;;;;0.50;0.50;;;;;;;36.33;27.99;95487.13;5132456;27;20180;-57
2022/07/03 10:24:24;;;;;;;0.40;0.30;;;;;;;35.96;28.78;95487.59;5132928;27;20188;-57
2022/07/03 10:26:54;;;;;;;0.43;0.40;;;;;;;36.02;27.95;95488.69;5132719;27;20219;-57
2022/07/03 10:29:24;;;;;;;0.77;0.77;;;;;;;35.92;28.60;95481.41;5132107;27;20233;-57
2022/07/03 10:31:57;;;;;;;0.75;0.40;;;;;;;34.54;27.84;95312.59;5132179;27;20191;-57
2022/07/03 10:34:28;;;;;;;0.50;0.40;;;;;;;35.74;27.22;95472.72;5131993;27;20340;-58
2022/07/03 10:37:01;;;;;;;0.50;0.40;;;;;;;36.11;27.39;95469.53;5132182;27;20233;-58
2022/07/03 10:39:55;;;;;;;0.40;0.35;;;;;;;36.79;28.99;95460.34;5132339;27;20212;-57
2022/07/03 10:45:21;;;;;;;0.60;0.60;;;;;;;36.60;27.49;95448.22;5132216;28;20734;-57
2022/07/03 10:47:51;;;;;;;1.13;1.02;;;;;;;36.59;28.10;95440.38;5132283;28;20593;-57
2022/07/03 10:50:21;;;;;;;0.45;0.45;;;;;;;36.23;29.11;95446.75;5131695;28;20640;-57
2022/07/03 10:52:52;;;;;;;0.40;0.35;;;;;;;37.27;27.33;95445.63;5132179;28;20188;-57
2022/07/03 10:55:20;;;;;;;0.40;0.30;;;;;;;36.97;26.70;95437.78;5132502;28;20678;-57
2022/07/03 10:58:10;;;;;;;0.45;0.45;;;;;;;37.47;26.25;95444.25;5132554;28;20228;-57
2022/07/03 11:00:56;;;;;;;0.30;0.30;;;;;;;37.16;26.85;95436.88;5132413;28;20202;-57
2022/07/03 11:03:54;;;;;;;0.50;0.50;;;;;;;36.49;28.52;95439.44;5132656;28;20184;-56
2022/07/03 11:07:01;;;;;;;0.35;0.30;;;;;;;36.10;28.04;95423.06;5132258;28;20271;-56
2022/07/03 11:09:31;;;;;;;0.50;0.40;;;;;;;36.03;28.35;95432.28;5115798;28;20279;-56
2022/07/03 11:11:59;;;;;;;0.50;0.50;;;;;;;37.32;27.48;95418.22;5132216;28;20185;-56
2022/07/03 11:14:29;;;;;;;0.40;0.40;;;;;;;37.03;28.46;95427.75;5131976;28;20235;-56
2022/07/03 11:17:19;;;;;;;0.45;0.43;;;;;;;36.43;28.44;95418.28;5132847;28;20192;-56
2022/07/03 11:20:23;;;;;;;0.52;0.52;;;;;;;36.38;28.33;95416.06;5132311;28;20232;-57
2022/07/03 11:22:45;;;;;;;0.40;0.30;;;;;;;36.39;28.36;95423.09;5132570;28;20201;-57
2022/07/03 11:25:18;;;;;;;1.13;0.30;;;;;;;37.04;25.82;95418.28;5132568;28;20273;-56
2022/07/03 11:27:47;;;;;;;0.60;0.50;;;;;;;36.70;27.35;95414.03;5132618;28;20184;-56
2022/07/03 11:30:16;;;;;;;2.25;0.50;;;;;;;35.82;29.65;95416.22;5132533;28;20606;-57
2022/07/03 11:32:59;;;;;;;0.45;0.40;;;;;;;34.53;32.59;95415.66;5132536;28;20223;-58
2022/07/03 11:35:51;;;;;;;2.00;0.40;;;;;;;33.62;32.27;95413.22;5132466;28;20382;-58
2022/07/03 11:38:29;;;;;;;0.90;0.90;;;;;;;33.40;33.45;95422.91;5132052;28;20271;-57
2022/07/03 11:41:00;;;;;;;0.67;0.57;;;;;;;33.46;34.35;95417.72;5132122;28;20231;-58
2022/07/03 11:43:29;;;;;;;0.50;0.40;;;;;;;32.83;33.31;95416.53;5131949;28;20231;-57
2022/07/03 11:45:58;;;;;;;0.70;0.57;;;;;;;33.21;34.78;95415.31;5132050;28;20232;-58
2022/07/03 11:48:28;;;;;;;1.00;0.47;;;;;;;33.32;34.30;95406.94;5132395;28;20410;-58
2022/07/03 11:51:01;;;;;;;0.40;0.30;;;;;;;33.76;34.29;95415.75;5132034;28;20425;-58
2022/07/03 11:53:31;;;;;;;0.40;0.30;;;;;;;33.38;33.70;95400.56;5134179;27;20461;-58
2022/07/03 11:56:03;;;;;;;0.50;0.50;;;;;;;33.46;34.48;95407.50;5135737;27;20508;-58
2022/07/03 11:58:45;;;;;;;0.57;0.40;;;;;;;33.96;35.56;95412.28;5135623;27;20426;-58